Aviation Digital Data Service (ADDS)

Output produced by METARs form (0905 UTC 24 March 2019)
found at http://www.aviationweather.gov/metar/data/
 
Forecast for: UTNU (URGENCH , UZ)
Text: TAF UTNU 240502Z 2406/2506 16010G20KT 8000 SCT040 BKN100
Forecast period: 0600 UTC 24 March 2019 to 0600 UTC 25 March 2019
Forecast type: FROM: standard forecast or significant change
Winds: from the SSE (160 degrees) at 12 MPH (10 knots; 5.1 m/s)
gusting to 23 MPH (20 knots; 10.3 m/s)
Visibility: 5 miles (8 km)
Ceiling: 10000 feet AGL
Clouds: scattered clouds at 4000 feet AGL
broken clouds at 10000 feet AGL
Weather: no significant weather forecast for this period
Text: TEMPO 2406/2412 22008KT BKN030CB OVC100
Forecast period: 0600 to 1200 UTC 24 March 2019
Forecast type: TEMPORARY: The following changes expected for less than half the time period
Winds: from the SW (220 degrees) at 9 MPH (8 knots; 4.1 m/s)
Visibility: missing
Ceiling: 3000 feet AGL
Clouds: broken clouds at 3000 feet AGL
overcast cloud deck at 10000 feet AGL
Weather: no significant weather forecast for this period